createdAt,value
2023-11-25T00:00:37.296Z,83.24
2023-11-25T00:02:14.920Z,83.18
2023-11-25T00:03:48.609Z,83.34
2023-11-25T00:05:20.902Z,83.32
2023-11-25T00:06:50.598Z,83.50
2023-11-25T00:08:27.515Z,83.42
2023-11-25T00:09:49.599Z,83.66
2023-11-25T00:11:28.212Z,83.47
2023-11-25T00:12:57.389Z,83.33
2023-11-25T00:14:21.397Z,83.41
2023-11-25T00:15:57.576Z,83.38
2023-11-25T00:17:32.498Z,83.38
2023-11-25T00:18:54.384Z,83.69
2023-11-25T00:20:35.399Z,83.48
2023-11-25T00:21:59.434Z,83.71
2023-11-25T00:23:23.919Z,83.70
2023-11-25T00:24:48.771Z,83.65
2023-11-25T00:26:13.476Z,84.04
2023-11-25T00:27:39.169Z,84.01
2023-11-25T00:29:05.798Z,84.03
2023-11-25T00:30:40.125Z,83.98
2023-11-25T00:32:04.000Z,83.99
2023-11-25T00:33:29.463Z,83.96
2023-11-25T00:34:51.553Z,84.23
2023-11-25T00:36:15.907Z,84.32
2023-11-25T00:37:37.804Z,84.21
2023-11-25T00:39:10.386Z,84.13
2023-11-25T00:40:33.097Z,84.06
2023-11-25T00:41:56.838Z,84.25
2023-11-25T00:43:18.991Z,84.54
2023-11-25T00:44:50.389Z,84.56
2023-11-25T00:46:12.622Z,84.53
2023-11-25T00:47:45.335Z,84.31
2023-11-25T00:49:09.890Z,84.46
2023-11-25T00:50:43.612Z,84.32
2023-11-25T00:52:07.813Z,84.35
2023-11-25T00:53:32.391Z,84.34
2023-11-25T00:54:56.514Z,84.46
2023-11-25T00:56:26.371Z,84.35
2023-11-25T00:57:50.651Z,84.31
2023-11-25T00:59:26.525Z,84.46
2023-11-25T01:00:48.915Z,84.68
2023-11-25T01:02:15.564Z,84.39
2023-11-25T01:03:39.813Z,84.38
2023-11-25T01:05:02.049Z,84.39
2023-11-25T01:06:24.223Z,84.74
2023-11-25T01:07:46.355Z,84.89
2023-11-25T01:09:09.118Z,85.12
2023-11-25T01:10:41.394Z,84.71
2023-11-25T01:12:17.110Z,84.96
2023-11-25T01:13:41.531Z,85.02
2023-11-25T01:15:05.886Z,85.29
2023-11-25T01:16:38.464Z,85.53
2023-11-25T01:18:00.495Z,85.60
2023-11-25T01:19:24.878Z,85.48
2023-11-25T01:20:48.932Z,85.58
2023-11-25T01:22:13.087Z,85.39
2023-11-25T01:23:35.078Z,85.27
2023-11-25T01:24:57.463Z,85.20
2023-11-25T01:26:19.371Z,84.85
2023-11-25T01:27:53.334Z,85.09
2023-11-25T01:29:19.751Z,84.94
2023-11-25T01:30:42.066Z,84.41
2023-11-25T01:32:07.002Z,84.54
2023-11-25T01:33:38.575Z,84.36
2023-11-25T01:35:13.258Z,84.27
2023-11-25T01:36:38.510Z,84.34
2023-11-25T01:38:11.534Z,84.64
2023-11-25T01:39:33.726Z,84.30
2023-11-25T01:40:57.537Z,84.21
2023-11-25T01:42:29.264Z,84.30
2023-11-25T01:43:51.593Z,84.42
2023-11-25T01:45:27.436Z,84.23
2023-11-25T01:47:00.780Z,84.34
2023-11-25T01:48:32.726Z,83.97
2023-11-25T01:49:54.293Z,83.62
2023-11-25T01:51:16.160Z,83.54
2023-11-25T01:52:54.332Z,83.44
2023-11-25T01:54:16.615Z,83.52
2023-11-25T01:55:50.172Z,83.29
2023-11-25T01:57:14.555Z,83.15
2023-11-25T01:58:36.932Z,83.19
2023-11-25T02:00:01.247Z,82.97
2023-11-25T02:01:25.526Z,82.80
2023-11-25T02:02:50.639Z,82.49
2023-11-25T02:04:12.785Z,82.27
2023-11-25T02:05:44.592Z,81.68
2023-11-25T02:07:16.098Z,81.87
2023-11-25T02:08:46.005Z,81.93
2023-11-25T02:10:08.116Z,81.80
2023-11-25T02:11:30.697Z,81.70
2023-11-25T02:12:56.932Z,81.74
2023-11-25T02:14:21.117Z,82.10
2023-11-25T02:15:43.075Z,81.81
2023-11-25T02:17:05.869Z,82.09
2023-11-25T02:18:30.725Z,81.70
2023-11-25T02:19:55.161Z,81.68
2023-11-25T02:21:24.321Z,81.51
2023-11-25T02:22:51.023Z,81.70
2023-11-25T02:24:13.463Z,81.77
2023-11-25T02:25:35.276Z,81.92
2023-11-25T02:26:58.205Z,81.85
2023-11-25T02:28:27.981Z,81.72
2023-11-25T02:29:50.896Z,81.40
2023-11-25T02:31:13.182Z,81.36
2023-11-25T02:32:35.700Z,81.29
2023-11-25T02:33:57.485Z,81.53
2023-11-25T02:35:28.725Z,81.42
2023-11-25T02:37:03.178Z,81.12
2023-11-25T02:38:25.686Z,81.34
2023-11-25T02:39:47.442Z,81.49
2023-11-25T02:41:16.402Z,81.19
2023-11-25T02:42:38.931Z,81.49
2023-11-25T02:44:05.182Z,81.41
2023-11-25T02:45:38.756Z,81.35
2023-11-25T02:47:03.638Z,80.98
2023-11-25T02:48:26.463Z,81.01
2023-11-25T02:49:50.536Z,81.19
2023-11-25T02:51:12.795Z,81.35
2023-11-25T02:52:46.431Z,81.30
2023-11-25T02:54:10.659Z,81.16
2023-11-25T02:55:35.103Z,81.31
2023-11-25T02:56:56.704Z,81.34
2023-11-25T02:58:20.660Z,81.42
2023-11-25T02:59:43.818Z,81.31
2023-11-25T03:01:10.163Z,81.26
2023-11-25T03:02:32.570Z,81.31
2023-11-25T03:04:06.304Z,81.18
2023-11-25T03:05:38.405Z,81.01
2023-11-25T03:07:05.695Z,80.82
2023-11-25T03:08:35.144Z,80.85
2023-11-25T03:09:59.171Z,80.79
2023-11-25T03:11:22.134Z,80.75
2023-11-25T03:12:50.134Z,80.84
2023-11-25T03:14:13.032Z,80.73
2023-11-25T03:15:45.104Z,80.72
2023-11-25T03:17:06.540Z,80.83
2023-11-25T03:18:30.447Z,80.96
2023-11-25T03:19:52.516Z,81.06
2023-11-25T03:21:14.801Z,81.13
2023-11-25T03:22:48.432Z,81.08
2023-11-25T03:24:15.090Z,81.16
2023-11-25T03:25:40.121Z,80.89
2023-11-25T03:27:03.381Z,80.92
2023-11-25T03:28:26.502Z,80.86
2023-11-25T03:29:51.210Z,80.80
2023-11-25T03:31:13.501Z,80.76
2023-11-25T03:32:36.185Z,81.03
2023-11-25T03:33:58.217Z,81.10
2023-11-25T03:35:20.071Z,81.06
2023-11-25T03:36:44.310Z,80.79
2023-11-25T03:38:09.999Z,80.72
2023-11-25T03:39:32.286Z,80.72
2023-11-25T03:41:02.561Z,80.75
2023-11-25T03:42:26.744Z,80.72
2023-11-25T03:44:02.298Z,80.60
2023-11-25T03:45:24.533Z,80.53
2023-11-25T03:46:46.999Z,80.50
2023-11-25T03:48:16.669Z,80.46
2023-11-25T03:49:38.947Z,80.12
2023-11-25T03:51:00.539Z,80.23
2023-11-25T03:52:23.071Z,80.30
2023-11-25T03:53:46.409Z,80.22
2023-11-25T03:55:08.340Z,80.09
2023-11-25T03:56:31.074Z,80.47
2023-11-25T03:57:52.884Z,80.84
2023-11-25T03:59:14.770Z,80.41
2023-11-25T04:00:48.542Z,80.54
2023-11-25T04:02:10.520Z,80.55
2023-11-25T04:03:35.707Z,80.92
2023-11-25T04:04:58.006Z,80.71
2023-11-25T04:06:20.211Z,80.73
2023-11-25T04:07:42.793Z,80.72
2023-11-25T04:09:06.696Z,80.78
2023-11-25T04:10:29.128Z,80.75
2023-11-25T04:12:07.554Z,81.21
2023-11-25T04:13:30.475Z,81.30
2023-11-25T04:14:52.404Z,81.45
2023-11-25T04:16:14.470Z,81.21
2023-11-25T04:17:39.896Z,81.31
2023-11-25T04:19:09.332Z,81.32
2023-11-25T04:20:34.619Z,81.24
2023-11-25T04:22:01.044Z,81.31
2023-11-25T04:23:33.242Z,81.62
2023-11-25T04:24:55.206Z,81.80
2023-11-25T04:26:17.101Z,82.07
2023-11-25T04:27:48.005Z,82.24
2023-11-25T04:29:10.281Z,82.24
2023-11-25T04:30:40.043Z,82.59
2023-11-25T04:32:04.313Z,82.33
2023-11-25T04:33:26.428Z,82.42
2023-11-25T04:34:50.496Z,82.73
2023-11-25T04:36:13.896Z,82.92
2023-11-25T04:37:36.912Z,83.06
2023-11-25T04:39:00.290Z,83.27
2023-11-25T04:40:22.128Z,83.26
2023-11-25T04:41:44.080Z,83.21
2023-11-25T04:43:13.060Z,83.27
2023-11-25T04:44:35.279Z,83.22
2023-11-25T04:46:04.350Z,83.42
2023-11-25T04:47:27.919Z,83.58
2023-11-25T04:48:50.146Z,83.58
2023-11-25T04:50:13.314Z,83.47
2023-11-25T04:51:37.689Z,83.84
2023-11-25T04:53:00.912Z,84.09
2023-11-25T04:54:25.340Z,83.92
2023-11-25T04:55:49.666Z,84.18
2023-11-25T04:57:12.469Z,84.25
2023-11-25T04:58:36.988Z,84.28
2023-11-25T05:00:00.890Z,84.39
2023-11-25T05:01:23.065Z,84.26
2023-11-25T05:02:45.676Z,84.44
2023-11-25T05:04:08.630Z,84.24
2023-11-25T05:05:33.565Z,84.51
2023-11-25T05:06:55.768Z,84.69
2023-11-25T05:08:32.116Z,84.71
2023-11-25T05:10:03.619Z,84.56
2023-11-25T05:11:27.765Z,84.78
2023-11-25T05:12:56.724Z,85.00
2023-11-25T05:14:18.834Z,84.79
2023-11-25T05:15:48.541Z,84.94
2023-11-25T05:17:18.068Z,84.75
2023-11-25T05:18:40.167Z,84.87
2023-11-25T05:20:10.400Z,84.94
2023-11-25T05:21:33.188Z,85.01
2023-11-25T05:23:08.915Z,85.07
2023-11-25T05:24:31.531Z,85.16
2023-11-25T05:25:56.024Z,85.05
2023-11-25T05:27:27.488Z,84.72
2023-11-25T05:29:00.881Z,84.83
2023-11-25T05:30:30.420Z,84.92
2023-11-25T05:31:52.179Z,84.94
2023-11-25T05:33:16.724Z,85.02
2023-11-25T05:34:40.834Z,85.02
2023-11-25T05:36:17.565Z,85.17
2023-11-25T05:37:41.965Z,85.05
2023-11-25T05:39:07.892Z,85.01
2023-11-25T05:40:31.586Z,84.98
2023-11-25T05:41:53.220Z,84.95
2023-11-25T05:43:17.728Z,84.78
2023-11-25T05:44:42.384Z,84.83
2023-11-25T05:46:07.164Z,84.93
2023-11-25T05:47:29.576Z,84.86
2023-11-25T05:48:51.405Z,84.72
2023-11-25T05:50:21.876Z,84.85
2023-11-25T05:51:58.210Z,84.84
2023-11-25T05:53:21.974Z,84.80
2023-11-25T05:54:58.677Z,84.68
2023-11-25T05:56:26.735Z,84.83
2023-11-25T05:57:51.265Z,84.69
2023-11-25T05:59:15.876Z,84.83
2023-11-25T06:00:41.114Z,84.67
2023-11-25T06:02:14.954Z,84.65
2023-11-25T06:03:44.507Z,84.67
2023-11-25T06:05:06.389Z,84.78
2023-11-25T06:06:28.996Z,84.56
2023-11-25T06:07:51.440Z,84.68
2023-11-25T06:09:20.558Z,84.64
2023-11-25T06:10:55.313Z,84.77
2023-11-25T06:12:29.628Z,84.66
2023-11-25T06:13:51.635Z,84.70
2023-11-25T06:15:16.796Z,84.54
2023-11-25T06:16:42.863Z,84.45
2023-11-25T06:18:04.989Z,84.53
2023-11-25T06:19:34.564Z,84.52
2023-11-25T06:20:56.356Z,84.49
2023-11-25T06:22:30.060Z,84.20
2023-11-25T06:23:52.052Z,84.34
2023-11-25T06:25:15.144Z,84.35
2023-11-25T06:26:51.192Z,84.37
2023-11-25T06:28:15.453Z,84.46
2023-11-25T06:29:40.805Z,84.24
2023-11-25T06:31:05.427Z,84.29
2023-11-25T06:32:30.453Z,84.09
2023-11-25T06:33:53.084Z,84.20
2023-11-25T06:35:17.326Z,84.26
2023-11-25T06:36:39.282Z,84.29
2023-11-25T06:38:13.034Z,84.09
2023-11-25T06:39:38.010Z,84.13
2023-11-25T06:40:59.669Z,83.82
2023-11-25T06:42:23.380Z,83.43
2023-11-25T06:43:57.087Z,83.67
2023-11-25T06:45:31.068Z,83.91
2023-11-25T06:46:53.301Z,83.73
2023-11-25T06:48:17.201Z,83.43
2023-11-25T06:49:46.291Z,83.51
2023-11-25T06:51:08.141Z,83.45
2023-11-25T06:52:30.473Z,83.39
2023-11-25T06:54:06.919Z,83.28
2023-11-25T06:55:29.437Z,83.30
2023-11-25T06:56:53.464Z,83.29
2023-11-25T06:58:15.570Z,83.44
2023-11-25T06:59:40.317Z,83.14
2023-11-25T07:01:05.788Z,82.96
2023-11-25T07:02:52.554Z,82.56
2023-11-25T07:04:20.077Z,82.44
2023-11-25T07:05:43.049Z,82.40
2023-11-25T07:07:04.892Z,82.33
2023-11-25T07:08:34.170Z,82.00
2023-11-25T07:10:15.698Z,81.76
2023-11-25T07:12:04.167Z,81.77
2023-11-25T07:13:29.400Z,81.81
2023-11-25T07:14:53.940Z,81.65
2023-11-25T07:16:35.088Z,81.52
2023-11-25T07:17:57.242Z,81.50
2023-11-25T07:19:20.372Z,81.44
2023-11-25T07:20:51.374Z,81.58
2023-11-25T07:22:33.497Z,81.39
2023-11-25T07:23:57.496Z,81.65
2023-11-25T07:25:21.782Z,81.73
2023-11-25T07:26:55.739Z,81.97
2023-11-25T07:28:17.886Z,82.07
2023-11-25T07:29:59.097Z,81.95
2023-11-25T07:31:21.099Z,81.79
2023-11-25T07:32:55.059Z,81.92
2023-11-25T07:34:17.287Z,81.93
2023-11-25T07:35:39.893Z,81.97
2023-11-25T07:37:03.818Z,81.62
2023-11-25T07:38:26.307Z,81.71
2023-11-25T07:39:55.870Z,81.51
2023-11-25T07:41:20.893Z,81.60
2023-11-25T07:42:58.671Z,81.45
2023-11-25T07:44:32.218Z,81.74
2023-11-25T07:45:56.520Z,81.50
2023-11-25T07:47:18.581Z,81.48
2023-11-25T07:48:43.072Z,81.50
2023-11-25T07:50:04.902Z,81.19
2023-11-25T07:51:27.396Z,81.25
2023-11-25T07:52:49.320Z,81.42
2023-11-25T07:54:11.319Z,81.23
2023-11-25T07:55:45.141Z,81.18
2023-11-25T07:57:20.392Z,81.17
2023-11-25T07:58:42.726Z,81.21
2023-11-25T08:00:08.092Z,81.05
2023-11-25T08:01:37.432Z,81.04
2023-11-25T08:02:59.978Z,81.16
2023-11-25T08:04:26.397Z,80.87
2023-11-25T08:05:50.731Z,80.94
2023-11-25T08:07:19.726Z,80.63
2023-11-25T08:08:53.258Z,80.45
2023-11-25T08:10:22.812Z,80.22
2023-11-25T08:11:56.709Z,80.46
2023-11-25T08:13:30.612Z,79.94
2023-11-25T08:14:54.673Z,79.99
2023-11-25T08:16:16.671Z,80.00
2023-11-25T08:17:40.944Z,79.81
2023-11-25T08:19:02.812Z,79.80
2023-11-25T08:20:25.626Z,79.73
2023-11-25T08:21:47.562Z,79.58
2023-11-25T08:23:11.526Z,79.67
2023-11-25T08:24:41.437Z,79.34
2023-11-25T08:26:03.080Z,79.80
2023-11-25T08:27:40.129Z,79.54
2023-11-25T08:29:04.203Z,79.59
2023-11-25T08:30:26.359Z,79.44
2023-11-25T08:31:59.718Z,79.46
2023-11-25T08:33:22.160Z,79.78
2023-11-25T08:34:55.640Z,79.28
2023-11-25T08:36:19.299Z,79.21
2023-11-25T08:37:45.968Z,79.41
2023-11-25T08:39:09.825Z,79.35
2023-11-25T08:40:31.822Z,79.21
2023-11-25T08:41:56.188Z,79.64
2023-11-25T08:43:21.846Z,79.37
2023-11-25T08:44:55.387Z,79.46
2023-11-25T08:46:21.201Z,79.52
2023-11-25T08:47:50.838Z,79.36
2023-11-25T08:49:16.175Z,79.40
2023-11-25T08:50:40.753Z,79.35
2023-11-25T08:52:14.177Z,79.02
2023-11-25T08:53:38.669Z,79.06
2023-11-25T08:55:14.437Z,78.79
2023-11-25T08:56:38.893Z,78.50
2023-11-25T08:58:00.647Z,78.78
2023-11-25T08:59:25.359Z,79.04
2023-11-25T09:00:50.597Z,78.74
2023-11-25T09:02:14.224Z,78.41
2023-11-25T09:03:40.684Z,78.35
2023-11-25T09:05:09.285Z,78.36
2023-11-25T09:06:47.458Z,78.34
2023-11-25T09:08:22.976Z,78.02
2023-11-25T09:09:53.084Z,77.89
2023-11-25T09:11:14.566Z,77.90
2023-11-25T09:12:48.270Z,77.55
2023-11-25T09:14:21.825Z,77.54
2023-11-25T09:15:46.263Z,77.36
2023-11-25T09:17:20.731Z,77.26
2023-11-25T09:19:01.700Z,76.43
2023-11-25T09:20:31.454Z,76.64
2023-11-25T09:22:00.077Z,77.04
2023-11-25T09:23:22.823Z,76.78
2023-11-25T09:24:45.409Z,76.50
2023-11-25T09:26:22.651Z,76.57
2023-11-25T09:27:47.030Z,76.37
2023-11-25T09:29:08.740Z,76.67
2023-11-25T09:30:35.895Z,76.68
2023-11-25T09:31:58.799Z,76.71
2023-11-25T09:33:20.875Z,76.73
2023-11-25T09:34:43.136Z,76.82
2023-11-25T09:36:05.120Z,76.95
2023-11-25T09:37:27.317Z,76.55
2023-11-25T09:38:56.259Z,76.75
2023-11-25T09:40:32.544Z,76.73
2023-11-25T09:41:54.826Z,76.78
2023-11-25T09:43:21.794Z,76.66
2023-11-25T09:44:44.215Z,76.74
2023-11-25T09:46:08.807Z,76.68
2023-11-25T09:47:35.519Z,76.33
2023-11-25T09:48:59.177Z,76.37
2023-11-25T09:50:22.656Z,76.54
2023-11-25T09:51:44.847Z,76.34
2023-11-25T09:53:13.924Z,76.29
2023-11-25T09:54:36.764Z,76.39
2023-11-25T09:55:59.385Z,76.38
2023-11-25T09:57:33.831Z,76.69
2023-11-25T09:59:12.325Z,76.64
2023-11-25T10:00:42.796Z,76.68
2023-11-25T10:02:04.559Z,76.56
2023-11-25T10:03:27.463Z,76.87
2023-11-25T10:04:49.221Z,76.73
2023-11-25T10:06:13.308Z,76.90
2023-11-25T10:07:38.269Z,76.69
2023-11-25T10:09:11.033Z,76.99
2023-11-25T10:10:35.352Z,77.08
2023-11-25T10:11:57.786Z,77.22
2023-11-25T10:13:19.923Z,77.19
2023-11-25T10:14:41.914Z,77.28
2023-11-25T10:16:15.200Z,76.70
2023-11-25T10:17:49.591Z,77.14
2023-11-25T10:19:21.783Z,77.29
2023-11-25T10:20:44.153Z,77.52
2023-11-25T10:22:17.651Z,77.43
2023-11-25T10:23:42.208Z,77.68
2023-11-25T10:25:11.848Z,77.95
2023-11-25T10:26:36.861Z,78.12
2023-11-25T10:28:03.409Z,78.26
2023-11-25T10:29:33.211Z,78.26
2023-11-25T10:30:57.613Z,78.56
2023-11-25T10:32:21.861Z,78.95
2023-11-25T10:33:46.390Z,78.71
2023-11-25T10:35:20.310Z,78.80
2023-11-25T10:36:53.898Z,78.84
2023-11-25T10:38:31.035Z,79.21
2023-11-25T10:39:55.273Z,79.34
2023-11-25T10:41:25.037Z,78.98
2023-11-25T10:42:49.342Z,79.29
2023-11-25T10:44:11.071Z,79.35
2023-11-25T10:45:35.860Z,79.52
2023-11-25T10:46:59.218Z,79.37
2023-11-25T10:48:21.170Z,79.20
2023-11-25T10:49:52.103Z,79.39
2023-11-25T10:51:16.225Z,79.52
2023-11-25T10:52:40.089Z,79.08
2023-11-25T10:54:02.117Z,79.50
2023-11-25T10:55:27.074Z,79.79
2023-11-25T10:57:00.963Z,79.84
2023-11-25T10:58:33.324Z,79.46
2023-11-25T10:59:55.493Z,79.41
2023-11-25T11:01:17.553Z,79.50
2023-11-25T11:02:51.356Z,79.56
2023-11-25T11:04:22.957Z,79.52
2023-11-25T11:06:09.772Z,79.64
2023-11-25T11:07:34.751Z,79.51
2023-11-25T11:08:56.562Z,79.72
2023-11-25T11:10:28.863Z,79.61
2023-11-25T11:11:58.257Z,79.76
2023-11-25T11:13:20.228Z,79.40
2023-11-25T11:14:49.937Z,79.53
2023-11-25T11:16:13.971Z,79.33
2023-11-25T11:17:50.361Z,79.28
2023-11-25T11:19:14.991Z,79.26
2023-11-25T11:20:37.350Z,79.24
2023-11-25T11:21:59.021Z,79.17
2023-11-25T11:23:30.550Z,79.21
2023-11-25T11:24:59.737Z,79.22
2023-11-25T11:26:29.215Z,79.17
2023-11-25T11:28:02.585Z,79.32
2023-11-25T11:29:29.810Z,78.88
2023-11-25T11:30:56.155Z,78.87
2023-11-25T11:32:30.951Z,78.93
2023-11-25T11:33:52.764Z,78.78
2023-11-25T11:35:14.264Z,78.90
2023-11-25T11:36:38.454Z,78.66
2023-11-25T11:38:02.670Z,78.69
2023-11-25T11:39:24.720Z,78.93
2023-11-25T11:40:58.584Z,78.72
2023-11-25T11:42:20.510Z,78.59
2023-11-25T11:43:43.090Z,78.84
2023-11-25T11:45:12.921Z,78.51
2023-11-25T11:46:39.800Z,78.42
2023-11-25T11:48:05.167Z,77.81
2023-11-25T11:49:27.435Z,78.01
2023-11-25T11:50:56.861Z,77.87
2023-11-25T11:52:26.194Z,77.79
2023-11-25T11:53:48.191Z,77.56
2023-11-25T11:55:12.289Z,77.60
2023-11-25T11:56:34.688Z,77.34
2023-11-25T11:58:08.195Z,77.53
2023-11-25T11:59:30.712Z,77.24
2023-11-25T12:00:54.992Z,77.17
2023-11-25T12:02:28.480Z,76.70
2023-11-25T12:03:53.031Z,76.59
2023-11-25T12:05:20.552Z,76.50
2023-11-25T12:06:42.873Z,76.31
2023-11-25T12:08:06.890Z,76.22
2023-11-25T12:09:41.378Z,75.94
2023-11-25T12:11:06.898Z,75.94
2023-11-25T12:12:29.480Z,75.91
2023-11-25T12:13:53.459Z,76.21
2023-11-25T12:15:16.701Z,76.26
2023-11-25T12:16:39.070Z,76.23
2023-11-25T12:18:01.716Z,75.86
2023-11-25T12:19:35.905Z,75.37
2023-11-25T12:21:11.442Z,75.36
2023-11-25T12:22:36.619Z,75.42
2023-11-25T12:24:00.657Z,75.75
2023-11-25T12:25:22.524Z,75.87
2023-11-25T12:26:46.954Z,75.82
2023-11-25T12:28:18.653Z,76.00
2023-11-25T12:29:41.086Z,75.89
2023-11-25T12:31:04.844Z,75.72
2023-11-25T12:32:34.786Z,75.52
2023-11-25T12:34:13.175Z,75.32
2023-11-25T12:35:47.338Z,75.10
2023-11-25T12:37:20.662Z,75.28
2023-11-25T12:38:43.398Z,75.41
2023-11-25T12:40:05.985Z,75.71
2023-11-25T12:41:45.398Z,75.73
2023-11-25T12:43:07.345Z,75.99
2023-11-25T12:44:44.597Z,76.18
2023-11-25T12:46:20.952Z,76.14
2023-11-25T12:47:56.722Z,76.16
2023-11-25T12:49:18.643Z,76.33
2023-11-25T12:50:46.122Z,76.30
2023-11-25T12:52:19.597Z,76.46
2023-11-25T12:53:55.629Z,76.33
2023-11-25T12:55:28.901Z,76.07
2023-11-25T12:57:00.519Z,75.99
2023-11-25T12:58:25.078Z,76.12
2023-11-25T12:59:57.189Z,76.09
2023-11-25T13:01:19.134Z,76.26
2023-11-25T13:02:46.327Z,76.31
2023-11-25T13:04:19.693Z,76.34
2023-11-25T13:05:54.005Z,76.52
2023-11-25T13:07:18.411Z,76.26
2023-11-25T13:08:54.688Z,76.40
2023-11-25T13:10:28.389Z,76.35
2023-11-25T13:11:50.723Z,76.33
2023-11-25T13:13:24.306Z,76.35
2023-11-25T13:14:50.789Z,76.24
2023-11-25T13:16:14.087Z,76.30
2023-11-25T13:17:37.271Z,76.02
2023-11-25T13:19:03.989Z,76.00
2023-11-25T13:20:29.284Z,76.16
2023-11-25T13:21:54.060Z,76.22
2023-11-25T13:23:18.279Z,76.40
2023-11-25T13:24:40.658Z,76.45
2023-11-25T13:26:09.892Z,76.66
2023-11-25T13:27:32.055Z,76.83
2023-11-25T13:28:53.965Z,77.04
2023-11-25T13:30:23.129Z,77.03
2023-11-25T13:31:48.156Z,76.94
2023-11-25T13:33:09.986Z,77.08
2023-11-25T13:34:32.287Z,76.86
2023-11-25T13:35:55.885Z,76.54
2023-11-25T13:37:25.263Z,76.95
2023-11-25T13:38:47.212Z,76.83
2023-11-25T13:40:13.401Z,77.03
2023-11-25T13:41:49.564Z,76.89
2023-11-25T13:43:11.384Z,76.64
2023-11-25T13:44:33.363Z,77.17
2023-11-25T13:45:55.694Z,76.90
2023-11-25T13:47:19.836Z,77.00
2023-11-25T13:48:42.447Z,76.96
2023-11-25T13:50:04.966Z,76.71
2023-11-25T13:51:27.073Z,77.01
2023-11-25T13:52:48.850Z,76.67
2023-11-25T13:54:10.875Z,76.97
2023-11-25T13:55:37.713Z,77.10
2023-11-25T13:57:01.798Z,77.11
2023-11-25T13:58:23.799Z,77.05
2023-11-25T13:59:46.211Z,77.48
2023-11-25T14:01:22.253Z,77.37
2023-11-25T14:02:44.856Z,77.53
2023-11-25T14:04:13.974Z,77.95
2023-11-25T14:05:43.011Z,77.78
2023-11-25T14:07:04.954Z,78.03
2023-11-25T14:08:29.864Z,77.55
2023-11-25T14:09:51.880Z,77.81
2023-11-25T14:11:14.582Z,77.84
2023-11-25T14:12:37.325Z,78.10
2023-11-25T14:14:01.663Z,77.80
2023-11-25T14:15:39.139Z,77.77
2023-11-25T14:17:00.871Z,77.68
2023-11-25T14:18:27.682Z,77.91
2023-11-25T14:19:50.361Z,78.00
2023-11-25T14:21:12.006Z,77.97
2023-11-25T14:22:34.948Z,77.99
2023-11-25T14:23:59.134Z,78.03
2023-11-25T14:25:26.045Z,78.24
2023-11-25T14:26:47.769Z,78.26
2023-11-25T14:28:09.547Z,78.60
2023-11-25T14:29:45.916Z,78.57
2023-11-25T14:31:17.260Z,78.81
2023-11-25T14:32:50.012Z,79.08
2023-11-25T14:34:19.035Z,79.28
2023-11-25T14:35:30.226Z,79.53
2023-11-25T14:36:59.423Z,79.72
2023-11-25T14:38:23.682Z,79.70
2023-11-25T14:39:51.405Z,80.06
2023-11-25T14:41:20.426Z,80.01
2023-11-25T14:42:43.058Z,79.94
2023-11-25T14:44:05.360Z,80.16
2023-11-25T14:45:29.900Z,80.05
2023-11-25T14:46:51.710Z,80.26
2023-11-25T14:48:14.458Z,80.21
2023-11-25T14:49:37.078Z,80.05
2023-11-25T14:51:01.274Z,80.20
2023-11-25T14:52:23.015Z,80.37
2023-11-25T14:53:47.253Z,80.46
2023-11-25T14:55:12.801Z,80.57
2023-11-25T14:56:35.099Z,80.71
2023-11-25T14:57:57.580Z,80.68
2023-11-25T14:59:27.724Z,80.90
2023-11-25T15:00:49.179Z,81.18
2023-11-25T15:02:11.132Z,81.11
2023-11-25T15:03:44.248Z,81.28
2023-11-25T15:05:13.549Z,81.33
2023-11-25T15:06:43.343Z,81.34
2023-11-25T15:08:05.366Z,81.48
2023-11-25T15:09:30.665Z,81.10
2023-11-25T15:10:52.880Z,81.13
2023-11-25T15:12:14.519Z,81.19
2023-11-25T15:13:36.985Z,81.12
2023-11-25T15:14:59.562Z,81.25
2023-11-25T15:16:23.860Z,81.18
2023-11-25T15:17:48.787Z,81.53
2023-11-25T15:19:12.742Z,81.14
2023-11-25T15:20:37.259Z,81.57
2023-11-25T15:22:10.812Z,81.72
2023-11-25T15:23:45.304Z,81.65
2023-11-25T15:25:09.568Z,81.51
2023-11-25T15:26:39.185Z,81.48
2023-11-25T15:28:02.556Z,81.08
2023-11-25T15:29:27.128Z,81.32
2023-11-25T15:30:50.889Z,81.30
2023-11-25T15:32:12.741Z,81.24
2023-11-25T15:33:35.048Z,81.15
2023-11-25T15:35:20.186Z,80.91
2023-11-25T15:36:51.698Z,81.26
2023-11-25T15:38:22.655Z,81.22
2023-11-25T15:39:46.419Z,81.26
2023-11-25T15:41:13.983Z,81.22
2023-11-25T15:42:48.582Z,81.13
2023-11-25T15:44:30.131Z,81.21
2023-11-25T15:45:52.323Z,81.35
2023-11-25T15:47:16.610Z,81.37
2023-11-25T15:48:57.971Z,81.37
2023-11-25T15:50:31.978Z,81.21
2023-11-25T15:51:56.017Z,81.20
2023-11-25T15:53:20.040Z,81.53
2023-11-25T15:55:07.555Z,81.50
2023-11-25T15:56:41.767Z,81.42
2023-11-25T15:58:06.324Z,81.29
2023-11-25T15:59:42.783Z,81.25
2023-11-25T16:01:16.013Z,81.07
2023-11-25T16:02:38.335Z,81.06
2023-11-25T16:04:02.454Z,80.99
2023-11-25T16:05:44.164Z,81.29
2023-11-25T16:07:19.403Z,81.06
2023-11-25T16:08:53.210Z,81.19
2023-11-25T16:10:26.878Z,81.24
2023-11-25T16:11:48.938Z,81.23
2023-11-25T16:13:10.495Z,81.16
2023-11-25T16:14:43.289Z,81.32
2023-11-25T16:16:05.412Z,81.20
2023-11-25T16:17:39.668Z,81.22
2023-11-25T16:19:01.586Z,81.29
2023-11-25T16:20:23.214Z,81.52
2023-11-25T16:21:48.018Z,81.23
2023-11-25T16:23:12.081Z,81.29
2023-11-25T16:24:40.158Z,81.31
2023-11-25T16:26:04.390Z,81.30
2023-11-25T16:27:29.682Z,81.31
2023-11-25T16:28:51.389Z,81.45
2023-11-25T16:30:16.086Z,81.31
2023-11-25T16:31:38.436Z,81.14
2023-11-25T16:33:07.896Z,81.15
2023-11-25T16:34:30.135Z,81.13
2023-11-25T16:35:57.029Z,81.15
2023-11-25T16:37:18.522Z,81.03
2023-11-25T16:38:43.070Z,80.78
2023-11-25T16:40:06.756Z,80.79
2023-11-25T16:41:29.867Z,80.67
2023-11-25T16:42:51.217Z,80.88
2023-11-25T16:44:17.998Z,80.72
2023-11-25T16:45:49.282Z,80.62
2023-11-25T16:47:10.790Z,80.80
2023-11-25T16:48:48.754Z,80.77
2023-11-25T16:50:27.590Z,80.42
2023-11-25T16:51:58.936Z,80.77
2023-11-25T16:53:32.548Z,80.84
2023-11-25T16:54:57.383Z,80.65
2023-11-25T16:56:20.924Z,80.76
2023-11-25T16:57:45.043Z,80.93
2023-11-25T16:59:10.331Z,81.00
2023-11-25T17:00:53.137Z,81.10
2023-11-25T17:02:29.648Z,81.03
2023-11-25T17:03:53.683Z,80.90
2023-11-25T17:05:15.652Z,80.90
2023-11-25T17:06:40.318Z,81.08
2023-11-25T17:08:04.147Z,80.88
2023-11-25T17:09:37.782Z,81.17
2023-11-25T17:10:59.234Z,81.21
2023-11-25T17:12:28.812Z,81.12
2023-11-25T17:13:50.321Z,81.29
2023-11-25T17:15:12.196Z,81.36
2023-11-25T17:16:42.445Z,81.53
2023-11-25T17:18:09.583Z,81.38
2023-11-25T17:19:31.963Z,81.38
2023-11-25T17:20:53.570Z,81.49
2023-11-25T17:22:15.775Z,81.29
2023-11-25T17:23:38.476Z,81.43
2023-11-25T17:25:00.377Z,81.38
2023-11-25T17:26:25.273Z,81.40
2023-11-25T17:27:49.962Z,81.43
2023-11-25T17:29:14.999Z,81.53
2023-11-25T17:30:37.485Z,81.62
2023-11-25T17:32:09.593Z,81.51
2023-11-25T17:33:46.102Z,81.41
2023-11-25T17:35:27.513Z,81.63
2023-11-25T17:36:50.525Z,81.34
2023-11-25T17:38:12.597Z,81.55
2023-11-25T17:39:35.267Z,81.49
2023-11-25T17:40:57.276Z,81.47
2023-11-25T17:42:19.156Z,81.45
2023-11-25T17:43:46.149Z,81.43
2023-11-25T17:45:08.289Z,81.56
2023-11-25T17:46:30.754Z,81.62
2023-11-25T17:47:52.400Z,81.61
2023-11-25T17:49:14.561Z,81.51
2023-11-25T17:50:37.294Z,81.47
2023-11-25T17:51:58.870Z,81.30
2023-11-25T17:53:20.683Z,81.44
2023-11-25T17:54:50.231Z,81.78
2023-11-25T17:56:12.181Z,81.70
2023-11-25T17:57:42.001Z,81.44
2023-11-25T17:59:06.130Z,81.54
2023-11-25T18:00:30.778Z,81.73
2023-11-25T18:02:04.350Z,81.49
2023-11-25T18:03:40.655Z,81.55
2023-11-25T18:05:09.936Z,81.55
2023-11-25T18:06:32.694Z,81.57
2023-11-25T18:07:55.029Z,81.48
2023-11-25T18:09:29.831Z,81.45
2023-11-25T18:11:01.737Z,81.36
2023-11-25T18:12:23.545Z,81.43
2023-11-25T18:13:49.314Z,81.10
2023-11-25T18:15:22.787Z,81.44
2023-11-25T18:16:59.173Z,81.55
2023-11-25T18:18:23.375Z,81.52
2023-11-25T18:19:48.039Z,81.56
2023-11-25T18:21:12.545Z,81.71
2023-11-25T18:22:55.755Z,81.47
2023-11-25T18:24:24.861Z,81.76
2023-11-25T18:25:47.717Z,81.62
2023-11-25T18:27:11.785Z,81.58
2023-11-25T18:28:44.060Z,81.89
2023-11-25T18:30:22.230Z,81.46
2023-11-25T18:31:56.327Z,81.69
2023-11-25T18:33:30.913Z,81.55
2023-11-25T18:35:05.359Z,81.60
2023-11-25T18:36:29.748Z,81.43